createdAt,value
2023-11-27T00:01:51.274Z,9.40
2023-11-27T00:04:17.953Z,9.20
2023-11-27T00:06:44.473Z,8.90
2023-11-27T00:09:11.695Z,9.30
2023-11-27T00:11:40.039Z,11.05
2023-11-27T00:14:07.676Z,9.70
2023-11-27T00:16:34.386Z,9.13
2023-11-27T00:19:00.953Z,8.65
2023-11-27T00:21:27.624Z,8.60
2023-11-27T00:23:54.628Z,8.18
2023-11-27T00:26:21.247Z,6.78
2023-11-27T00:28:55.009Z,7.13
2023-11-27T00:31:21.598Z,8.13
2023-11-27T00:33:49.031Z,7.10
2023-11-27T00:36:15.633Z,8.32
2023-11-27T00:38:42.276Z,7.45
2023-11-27T00:41:09.120Z,8.85
2023-11-27T00:43:35.747Z,7.93
2023-11-27T00:46:02.346Z,9.20
2023-11-27T00:48:28.947Z,8.07
2023-11-27T00:50:55.465Z,11.15
2023-11-27T00:53:21.969Z,9.73
2023-11-27T00:55:48.473Z,10.55
2023-11-27T00:58:15.055Z,9.63
2023-11-27T01:00:41.773Z,10.07
2023-11-27T01:03:08.491Z,9.77
2023-11-27T01:05:35.093Z,10.85
2023-11-27T01:08:01.720Z,10.25
2023-11-27T01:10:28.236Z,11.60
2023-11-27T01:12:55.076Z,9.68
2023-11-27T01:15:22.957Z,9.98
2023-11-27T01:17:49.687Z,8.85
2023-11-27T01:20:16.630Z,9.90
2023-11-27T01:22:43.187Z,9.05
2023-11-27T01:25:11.169Z,8.93
2023-11-27T01:27:37.709Z,9.60
2023-11-27T01:30:05.194Z,9.13
2023-11-27T01:32:32.120Z,10.30
2023-11-27T01:34:59.298Z,8.00
2023-11-27T01:37:25.832Z,9.00
2023-11-27T01:39:52.407Z,9.32
2023-11-27T01:42:18.928Z,9.95
2023-11-27T01:44:45.451Z,9.45
2023-11-27T01:47:12.033Z,9.02
2023-11-27T01:49:39.059Z,9.30
2023-11-27T01:52:07.851Z,8.75
2023-11-27T01:54:37.834Z,9.30
2023-11-27T01:57:04.515Z,9.85
2023-11-27T01:59:31.567Z,10.18
2023-11-27T02:01:58.784Z,9.07
2023-11-27T02:04:25.551Z,9.07
2023-11-27T02:06:52.287Z,7.30
2023-11-27T02:09:18.904Z,9.07
2023-11-27T02:11:48.323Z,7.65
2023-11-27T02:14:16.748Z,7.70
2023-11-27T02:16:47.237Z,6.90
2023-11-27T02:19:17.164Z,7.30
2023-11-27T02:21:44.699Z,10.02
2023-11-27T02:24:11.235Z,12.93
2023-11-27T02:26:37.730Z,9.63
2023-11-27T02:29:05.489Z,9.35
2023-11-27T02:31:32.473Z,9.32
2023-11-27T02:33:59.241Z,8.60
2023-11-27T02:36:27.532Z,7.75
2023-11-27T02:38:54.161Z,8.05
2023-11-27T02:41:20.698Z,7.88
2023-11-27T02:43:47.343Z,7.60
2023-11-27T02:46:14.618Z,8.35
2023-11-27T02:48:41.168Z,7.38
2023-11-27T02:51:07.834Z,7.13
2023-11-27T02:53:34.344Z,7.00
2023-11-27T02:56:00.962Z,8.05
2023-11-27T02:58:27.479Z,7.13
2023-11-27T03:00:54.136Z,7.10
2023-11-27T03:03:20.754Z,8.00
2023-11-27T03:05:47.264Z,8.02
2023-11-27T03:08:15.860Z,8.27
2023-11-27T03:10:42.785Z,7.90
2023-11-27T03:13:10.430Z,7.88
2023-11-27T03:15:36.974Z,8.63
2023-11-27T03:18:03.543Z,8.80
2023-11-27T03:20:30.032Z,7.53
2023-11-27T03:22:56.551Z,8.48
2023-11-27T03:25:23.077Z,8.82
2023-11-27T03:27:49.667Z,8.65
2023-11-27T03:30:16.240Z,7.97
2023-11-27T03:32:42.823Z,8.15
2023-11-27T03:35:09.735Z,7.75
2023-11-27T03:37:36.467Z,8.35
2023-11-27T03:40:04.275Z,9.18
2023-11-27T03:42:31.456Z,8.15
2023-11-27T03:44:57.944Z,8.60
2023-11-27T03:47:25.058Z,9.43
2023-11-27T03:49:51.550Z,8.68
2023-11-27T03:52:18.079Z,9.35
2023-11-27T03:54:44.613Z,8.50
2023-11-27T03:57:11.129Z,8.27
2023-11-27T03:59:37.667Z,9.60
2023-11-27T04:02:04.407Z,9.13
2023-11-27T04:04:30.974Z,8.00
2023-11-27T04:06:58.249Z,8.75
2023-11-27T04:09:24.893Z,9.45
2023-11-27T04:11:51.461Z,9.43
2023-11-27T04:14:19.664Z,9.23
2023-11-27T04:16:46.365Z,9.43
2023-11-27T04:19:12.983Z,8.40
2023-11-27T04:21:39.512Z,8.20
2023-11-27T04:24:06.686Z,8.43
2023-11-27T04:26:33.259Z,8.82
2023-11-27T04:29:00.165Z,8.35
2023-11-27T04:31:26.824Z,9.75
2023-11-27T04:33:53.383Z,8.48
2023-11-27T04:36:20.048Z,9.65
2023-11-27T04:38:46.627Z,8.00
2023-11-27T04:41:13.637Z,8.82
2023-11-27T04:43:40.915Z,8.35
2023-11-27T04:46:08.760Z,9.38
2023-11-27T04:48:35.683Z,9.13
2023-11-27T04:51:02.810Z,8.68
2023-11-27T04:53:30.806Z,8.93
2023-11-27T04:55:57.408Z,8.82
2023-11-27T04:58:26.068Z,8.35
2023-11-27T05:00:52.934Z,9.05
2023-11-27T05:03:19.538Z,8.57
2023-11-27T05:05:46.052Z,9.20
2023-11-27T05:08:12.552Z,9.45
2023-11-27T05:10:40.378Z,9.20
2023-11-27T05:13:07.452Z,9.65
2023-11-27T05:15:33.964Z,8.98
2023-11-27T05:18:00.552Z,9.40
2023-11-27T05:20:27.347Z,10.15
2023-11-27T05:22:53.858Z,8.02
2023-11-27T05:25:20.387Z,8.25
2023-11-27T05:27:47.076Z,8.75
2023-11-27T05:30:13.671Z,8.57
2023-11-27T05:32:40.270Z,9.13
2023-11-27T05:35:08.579Z,9.60
2023-11-27T05:37:35.105Z,8.10
2023-11-27T05:40:01.645Z,8.93
2023-11-27T05:42:28.447Z,8.73
2023-11-27T05:45:00.440Z,7.93
2023-11-27T05:47:27.200Z,8.73
2023-11-27T05:49:54.173Z,9.02
2023-11-27T05:52:20.717Z,8.63
2023-11-27T05:54:47.239Z,8.77
2023-11-27T05:57:14.201Z,8.48
2023-11-27T05:59:40.701Z,9.40
2023-11-27T06:02:07.647Z,9.15
2023-11-27T06:04:34.256Z,9.77
2023-11-27T06:07:00.866Z,10.25
2023-11-27T06:09:27.379Z,9.93
2023-11-27T06:11:54.455Z,9.60
2023-11-27T06:14:20.953Z,9.90
2023-11-27T06:16:47.587Z,10.93
2023-11-27T06:19:14.780Z,9.95
2023-11-27T06:21:41.365Z,9.70
2023-11-27T06:24:09.434Z,9.55
2023-11-27T06:26:35.959Z,9.75
2023-11-27T06:29:03.438Z,10.90
2023-11-27T06:31:30.017Z,10.10
2023-11-27T06:33:57.057Z,10.20
2023-11-27T06:36:23.618Z,10.65
2023-11-27T06:38:50.125Z,10.68
2023-11-27T06:41:16.621Z,10.63
2023-11-27T06:43:43.108Z,10.43
2023-11-27T06:46:13.094Z,10.60
2023-11-27T06:48:39.819Z,9.63
2023-11-27T06:51:06.474Z,10.38
2023-11-27T06:53:33.330Z,9.82
2023-11-27T06:56:00.400Z,10.35
2023-11-27T06:58:26.973Z,10.15
2023-11-27T07:00:53.509Z,9.68
2023-11-27T07:03:20.089Z,11.05
2023-11-27T07:05:46.611Z,10.13
2023-11-27T07:08:13.137Z,9.75
2023-11-27T07:10:39.702Z,9.68
2023-11-27T07:13:07.040Z,9.48
2023-11-27T07:15:33.547Z,9.88
2023-11-27T07:18:10.147Z,9.57
2023-11-27T07:20:46.223Z,10.23
2023-11-27T07:23:13.347Z,9.88
2023-11-27T07:25:40.915Z,9.65
2023-11-27T07:28:07.570Z,10.15
2023-11-27T07:30:34.101Z,10.18
2023-11-27T07:33:03.597Z,12.43
2023-11-27T07:35:30.243Z,10.23
2023-11-27T07:37:56.749Z,10.57
2023-11-27T07:40:23.267Z,10.90
2023-11-27T07:42:49.963Z,10.10
2023-11-27T07:45:16.496Z,10.18
2023-11-27T07:47:43.085Z,10.48
2023-11-27T07:50:10.931Z,10.27
2023-11-27T07:52:37.844Z,11.48
2023-11-27T07:55:06.087Z,10.63
2023-11-27T07:57:33.753Z,10.75
2023-11-27T08:00:01.122Z,10.80
2023-11-27T08:02:27.639Z,10.55
2023-11-27T08:04:54.324Z,11.38
2023-11-27T08:07:21.015Z,10.13
2023-11-27T08:09:47.832Z,10.43
2023-11-27T08:12:15.297Z,10.48
2023-11-27T08:14:41.800Z,10.73
2023-11-27T08:17:08.779Z,10.88
2023-11-27T08:19:35.482Z,10.93
2023-11-27T08:22:04.392Z,11.25
2023-11-27T08:24:33.298Z,10.55
2023-11-27T08:27:02.555Z,9.52
2023-11-27T08:29:32.015Z,10.35
2023-11-27T08:31:59.853Z,11.02
2023-11-27T08:34:27.134Z,10.18
2023-11-27T08:36:54.058Z,10.55
2023-11-27T08:39:21.818Z,12.52
2023-11-27T08:41:50.346Z,10.07
2023-11-27T08:44:16.834Z,11.25
2023-11-27T08:46:44.347Z,11.25
2023-11-27T08:49:13.717Z,10.30
2023-11-27T08:51:47.221Z,10.38
2023-11-27T08:54:13.792Z,10.40
2023-11-27T08:56:42.630Z,9.98
2023-11-27T08:59:09.651Z,13.82
2023-11-27T09:01:36.639Z,9.77
2023-11-27T09:04:04.136Z,9.27
2023-11-27T09:06:30.712Z,9.43
2023-11-27T09:08:57.479Z,9.15
2023-11-27T09:11:26.590Z,10.32
2023-11-27T09:13:53.459Z,9.70
2023-11-27T09:16:20.200Z,10.52
2023-11-27T09:18:47.443Z,10.73
2023-11-27T09:21:14.094Z,11.18
2023-11-27T09:23:40.586Z,10.25
2023-11-27T09:26:07.273Z,10.93
2023-11-27T09:28:33.995Z,11.15
2023-11-27T09:31:02.630Z,10.32
2023-11-27T09:33:29.401Z,10.85
2023-11-27T09:35:55.970Z,10.68
2023-11-27T09:38:22.456Z,11.20
2023-11-27T09:40:49.005Z,11.20
2023-11-27T09:43:15.680Z,11.07
2023-11-27T09:45:42.498Z,11.00
2023-11-27T09:48:10.094Z,12.23
2023-11-27T09:50:36.809Z,11.00
2023-11-27T09:53:08.030Z,11.82
2023-11-27T09:55:41.214Z,12.18
2023-11-27T09:58:14.451Z,12.05
2023-11-27T10:00:43.004Z,11.88
2023-11-27T10:03:10.118Z,12.40
2023-11-27T10:05:38.639Z,12.50
2023-11-27T10:08:05.480Z,12.27
2023-11-27T10:10:32.076Z,13.40
2023-11-27T10:13:04.546Z,13.52
2023-11-27T10:15:35.176Z,13.10
2023-11-27T10:18:04.950Z,14.95
2023-11-27T10:20:32.741Z,14.80
2023-11-27T10:22:59.944Z,15.23
2023-11-27T10:25:26.568Z,14.68
2023-11-27T10:27:58.777Z,15.13
2023-11-27T10:30:26.581Z,15.27
2023-11-27T10:32:53.616Z,16.50
2023-11-27T10:35:21.449Z,14.40
2023-11-27T10:37:50.974Z,17.13
2023-11-27T10:40:18.973Z,15.48
2023-11-27T10:42:49.390Z,17.73
2023-11-27T10:45:17.913Z,12.75
2023-11-27T10:47:46.203Z,17.98
2023-11-27T10:50:14.451Z,15.50
2023-11-27T10:52:42.849Z,15.68
2023-11-27T10:55:10.469Z,14.23
2023-11-27T10:57:38.749Z,15.45
2023-11-27T11:00:06.909Z,15.68
2023-11-27T11:02:36.095Z,13.85
2023-11-27T11:05:04.268Z,13.95
2023-11-27T11:07:39.724Z,13.93
2023-11-27T11:10:10.245Z,12.90
2023-11-27T11:12:41.518Z,13.63
2023-11-27T11:15:14.880Z,14.20
2023-11-27T11:18:02.580Z,14.07
2023-11-27T11:20:35.000Z,14.55
2023-11-27T11:23:23.281Z,14.13
2023-11-27T11:26:06.001Z,14.82
2023-11-27T11:28:37.061Z,14.30
2023-11-27T11:31:25.820Z,14.07
2023-11-27T11:33:52.392Z,14.35
2023-11-27T11:36:32.597Z,15.57
2023-11-27T11:38:59.913Z,14.40
2023-11-27T11:41:29.835Z,15.02
2023-11-27T11:43:59.729Z,14.07
2023-11-27T11:46:29.784Z,15.50
2023-11-27T11:48:58.506Z,14.40
2023-11-27T11:51:27.985Z,14.82
2023-11-27T11:53:54.579Z,14.40
2023-11-27T11:56:25.702Z,14.82
2023-11-27T11:59:02.138Z,14.15
2023-11-27T12:01:34.118Z,15.40
2023-11-27T12:04:06.491Z,13.13
2023-11-27T12:06:33.923Z,15.73
2023-11-27T12:09:01.608Z,13.82
2023-11-27T12:11:32.372Z,15.13
2023-11-27T12:13:59.225Z,14.50
2023-11-27T12:16:26.408Z,14.10
2023-11-27T12:18:53.300Z,14.27
2023-11-27T12:21:25.322Z,14.00
2023-11-27T12:23:53.179Z,13.65
2023-11-27T12:26:26.402Z,12.70
2023-11-27T12:28:53.948Z,13.77
2023-11-27T12:31:22.044Z,13.35
2023-11-27T12:33:49.626Z,14.40
2023-11-27T12:36:21.756Z,13.48
2023-11-27T12:38:54.763Z,12.13
2023-11-27T12:41:33.585Z,12.27
2023-11-27T12:44:15.399Z,12.43
2023-11-27T12:46:51.422Z,11.98
2023-11-27T12:49:23.318Z,12.27
2023-11-27T12:51:53.575Z,13.05
2023-11-27T12:54:22.796Z,12.98
2023-11-27T12:56:50.926Z,12.02
2023-11-27T12:59:17.675Z,12.77
2023-11-27T13:02:00.516Z,12.52
2023-11-27T13:04:31.924Z,13.43
2023-11-27T13:07:06.884Z,12.48
2023-11-27T13:09:33.942Z,13.20
2023-11-27T13:12:16.215Z,13.50
2023-11-27T13:14:47.375Z,12.82
2023-11-27T13:19:51.195Z,12.05
2023-11-27T13:22:18.734Z,12.65
2023-11-27T13:24:46.488Z,12.65
2023-11-27T13:27:17.427Z,15.38
2023-11-27T13:32:15.976Z,13.05
2023-11-27T13:34:56.518Z,11.75
2023-11-27T13:37:28.631Z,11.55
2023-11-27T13:39:58.406Z,12.35
2023-11-27T13:42:31.878Z,13.07
2023-11-27T13:44:58.971Z,12.57
2023-11-27T13:47:25.922Z,12.73
2023-11-27T13:49:59.069Z,11.90
2023-11-27T13:52:30.928Z,11.65
2023-11-27T13:54:59.308Z,10.60
2023-11-27T13:57:28.823Z,11.70
2023-11-27T13:59:58.173Z,12.75
2023-11-27T14:02:33.077Z,11.85
2023-11-27T14:05:09.899Z,12.38
2023-11-27T14:07:42.230Z,12.15
2023-11-27T14:10:23.674Z,11.73
2023-11-27T14:12:56.724Z,12.48
2023-11-27T14:15:23.307Z,12.18
2023-11-27T14:18:18.790Z,12.48
2023-11-27T14:21:04.118Z,12.80
2023-11-27T14:23:42.562Z,11.98
2023-11-27T14:26:22.749Z,12.05
2023-11-27T14:28:49.428Z,12.00
2023-11-27T14:31:19.149Z,12.57
2023-11-27T14:33:49.143Z,12.80
2023-11-27T14:36:15.923Z,13.38
2023-11-27T14:38:43.433Z,13.32
2023-11-27T14:41:10.008Z,13.95
2023-11-27T14:43:36.564Z,13.45
2023-11-27T14:46:05.110Z,14.40
2023-11-27T14:48:33.477Z,13.88
2023-11-27T14:51:01.150Z,13.70
2023-11-27T14:53:27.803Z,13.40
2023-11-27T14:55:54.715Z,15.20
2023-11-27T14:58:25.297Z,14.77
2023-11-27T15:00:52.523Z,14.57
2023-11-27T15:03:26.638Z,15.00
2023-11-27T15:05:54.020Z,15.50
2023-11-27T15:08:23.659Z,16.38
2023-11-27T15:10:50.671Z,15.45
2023-11-27T15:13:21.155Z,15.02
2023-11-27T15:15:54.756Z,15.23
2023-11-27T15:18:22.455Z,13.57
2023-11-27T15:20:49.091Z,12.98
2023-11-27T15:23:15.693Z,13.20
2023-11-27T15:25:42.501Z,13.20
2023-11-27T15:28:09.629Z,13.38
2023-11-27T15:30:37.592Z,12.93
2023-11-27T15:33:06.209Z,11.95
2023-11-27T15:35:35.802Z,11.30
2023-11-27T15:38:04.070Z,11.63
2023-11-27T15:40:33.771Z,10.80
2023-11-27T15:43:00.479Z,10.95
2023-11-27T15:45:28.256Z,10.93
2023-11-27T15:47:57.788Z,11.45
2023-11-27T15:50:30.913Z,11.93
2023-11-27T15:52:59.531Z,11.60
2023-11-27T15:55:26.056Z,10.85
2023-11-27T15:57:52.654Z,11.43
2023-11-27T16:00:21.678Z,12.25
2023-11-27T16:02:49.304Z,11.35
2023-11-27T16:05:18.767Z,10.13
2023-11-27T16:07:45.877Z,10.43
2023-11-27T16:10:16.710Z,10.98
2023-11-27T16:12:44.126Z,11.02
2023-11-27T16:15:13.771Z,11.82
2023-11-27T16:17:53.178Z,11.73
2023-11-27T16:20:25.973Z,11.32
2023-11-27T16:22:52.719Z,11.38
2023-11-27T16:25:19.522Z,10.88
2023-11-27T16:27:49.187Z,11.55
2023-11-27T16:30:19.069Z,11.00
2023-11-27T16:32:46.562Z,11.57
2023-11-27T16:35:16.134Z,10.95
2023-11-27T16:37:43.421Z,10.65
2023-11-27T16:40:15.985Z,11.30
2023-11-27T16:42:46.707Z,10.70
2023-11-27T16:45:13.849Z,11.05
2023-11-27T16:47:40.506Z,10.90
2023-11-27T16:50:13.890Z,11.32
2023-11-27T16:52:42.194Z,12.10
2023-11-27T16:55:08.908Z,10.88
2023-11-27T16:57:35.451Z,11.00
2023-11-27T17:00:02.302Z,10.95
2023-11-27T17:02:28.963Z,9.98
2023-11-27T17:04:55.709Z,9.10
2023-11-27T17:07:23.216Z,8.93
2023-11-27T17:09:49.818Z,9.15
2023-11-27T17:12:16.333Z,9.63
2023-11-27T17:14:42.869Z,8.63
2023-11-27T17:17:09.670Z,9.05
2023-11-27T17:19:36.415Z,8.32
2023-11-27T17:22:03.006Z,8.68
2023-11-27T17:24:33.020Z,7.83
2023-11-27T17:26:59.546Z,7.05
2023-11-27T17:29:26.074Z,9.85
2023-11-27T17:31:58.021Z,7.70
2023-11-27T17:34:31.653Z,8.30
2023-11-27T17:36:58.186Z,8.30
2023-11-27T17:39:26.307Z,9.13
2023-11-27T17:41:53.419Z,8.73
2023-11-27T17:44:22.937Z,8.80
2023-11-27T17:46:49.644Z,8.40
2023-11-27T17:49:16.236Z,8.65
2023-11-27T17:51:47.469Z,8.68
2023-11-27T17:54:14.699Z,8.73
2023-11-27T17:56:43.574Z,8.70
2023-11-27T17:59:16.057Z,9.25
2023-11-27T18:01:43.798Z,7.50
2023-11-27T18:04:10.805Z,8.63
2023-11-27T18:06:41.966Z,7.50
2023-11-27T18:09:12.519Z,8.88
2023-11-27T18:11:39.952Z,9.15
2023-11-27T18:14:08.651Z,7.75
2023-11-27T18:16:35.315Z,9.25
2023-11-27T18:19:01.874Z,9.40
2023-11-27T18:21:28.423Z,9.45
2023-11-27T18:23:55.253Z,9.32
2023-11-27T18:26:21.778Z,9.55
2023-11-27T18:28:48.432Z,9.90
2023-11-27T18:31:15.582Z,9.48
2023-11-27T18:33:42.214Z,9.60
2023-11-27T18:36:09.309Z,10.18
2023-11-27T18:38:35.900Z,9.77
2023-11-27T18:41:02.385Z,9.85
2023-11-27T18:43:28.997Z,10.48
2023-11-27T18:45:55.856Z,10.60
2023-11-27T18:48:22.450Z,10.82
2023-11-27T18:50:49.408Z,10.02
2023-11-27T18:53:15.984Z,11.52
2023-11-27T18:55:45.673Z,9.88
2023-11-27T18:58:15.362Z,11.10
2023-11-27T19:00:42.071Z,10.65
2023-11-27T19:03:17.391Z,10.70
2023-11-27T19:05:45.739Z,10.52
2023-11-27T19:08:12.246Z,10.90
2023-11-27T19:10:38.751Z,10.50
2023-11-27T19:13:09.723Z,9.95
2023-11-27T19:15:40.901Z,10.93
2023-11-27T19:18:08.619Z,10.95
2023-11-27T19:20:35.288Z,12.85
2023-11-27T19:23:01.820Z,12.23
2023-11-27T19:25:30.026Z,10.40
2023-11-27T19:28:00.001Z,10.47
2023-11-27T19:30:30.002Z,10.70
2023-11-27T19:32:56.513Z,10.63
2023-11-27T19:35:23.064Z,11.95
2023-11-27T19:37:49.623Z,11.55
2023-11-27T19:40:16.700Z,10.68
2023-11-27T19:42:45.040Z,9.35
2023-11-27T19:45:11.778Z,11.20
2023-11-27T19:47:38.924Z,10.02
2023-11-27T19:50:09.716Z,10.82
2023-11-27T19:52:36.580Z,11.20
2023-11-27T19:55:04.777Z,10.55
2023-11-27T19:57:31.289Z,10.95
2023-11-27T19:59:57.828Z,10.82
2023-11-27T20:02:24.808Z,10.20
2023-11-27T20:04:51.933Z,11.02
2023-11-27T20:07:19.130Z,10.68
2023-11-27T20:09:45.833Z,11.55
2023-11-27T20:12:12.955Z,11.00
2023-11-27T20:14:39.457Z,10.40
2023-11-27T20:17:06.274Z,10.82
2023-11-27T20:19:34.081Z,10.95
2023-11-27T20:22:00.793Z,11.82
2023-11-27T20:24:27.707Z,10.75
2023-11-27T20:26:54.240Z,11.85
2023-11-27T20:29:20.737Z,11.57
2023-11-27T20:31:47.355Z,11.27
2023-11-27T20:34:13.898Z,10.65
2023-11-27T20:36:40.446Z,12.27
2023-11-27T20:39:12.043Z,11.57
2023-11-27T20:41:41.389Z,12.10
2023-11-27T20:44:08.041Z,12.77
2023-11-27T20:46:35.209Z,12.50
2023-11-27T20:49:02.039Z,12.23
2023-11-27T20:51:29.202Z,12.77
2023-11-27T20:53:56.407Z,12.25
2023-11-27T20:56:23.352Z,12.05
2023-11-27T20:58:51.044Z,12.88
2023-11-27T21:01:23.715Z,12.80
2023-11-27T21:03:52.443Z,13.23
2023-11-27T21:06:23.355Z,12.80
2023-11-27T21:08:50.114Z,12.77
2023-11-27T21:11:19.213Z,13.10
2023-11-27T21:13:45.855Z,12.65
2023-11-27T21:16:12.403Z,12.52
2023-11-27T21:18:38.927Z,12.15
2023-11-27T21:21:05.485Z,12.95
2023-11-27T21:23:32.938Z,11.93
2023-11-27T21:25:59.514Z,12.18
2023-11-27T21:28:26.176Z,11.40
2023-11-27T21:30:52.750Z,12.43
2023-11-27T21:33:19.345Z,13.13
2023-11-27T21:35:45.843Z,11.40
2023-11-27T21:38:12.370Z,11.68
2023-11-27T21:40:38.916Z,12.20
2023-11-27T21:43:05.557Z,11.95
2023-11-27T21:45:32.129Z,12.15
2023-11-27T21:47:58.647Z,11.02
2023-11-27T21:50:26.132Z,10.73
2023-11-27T21:52:52.642Z,11.65
2023-11-27T21:55:19.413Z,9.52
2023-11-27T21:57:46.146Z,9.45
2023-11-27T22:00:14.321Z,10.05
2023-11-27T22:02:41.830Z,9.75
2023-11-27T22:05:08.868Z,9.77
2023-11-27T22:07:35.956Z,9.85
2023-11-27T22:10:02.518Z,9.25
2023-11-27T22:12:28.993Z,9.90
2023-11-27T22:14:55.493Z,9.13
2023-11-27T22:17:22.230Z,9.15
2023-11-27T22:19:48.793Z,9.60
2023-11-27T22:22:15.308Z,9.85
2023-11-27T22:24:41.831Z,8.63
2023-11-27T22:27:08.519Z,8.68
2023-11-27T22:29:35.021Z,8.48
2023-11-27T22:32:01.746Z,8.70
2023-11-27T22:34:28.337Z,8.68
2023-11-27T22:36:54.874Z,7.82
2023-11-27T22:39:21.581Z,9.20
2023-11-27T22:41:48.355Z,9.15
2023-11-27T22:44:14.913Z,9.13
2023-11-27T22:46:41.540Z,9.25
2023-11-27T22:49:09.060Z,8.50
2023-11-27T22:51:36.554Z,8.63
2023-11-27T22:54:03.162Z,8.32
2023-11-27T22:56:32.921Z,9.40
2023-11-27T22:59:10.940Z,10.00
2023-11-27T23:01:41.770Z,9.55
2023-11-27T23:04:08.630Z,10.35
2023-11-27T23:06:38.177Z,10.43
2023-11-27T23:09:05.737Z,10.82
2023-11-27T23:11:32.235Z,11.77
2023-11-27T23:13:58.859Z,10.32
2023-11-27T23:16:25.668Z,11.43
2023-11-27T23:18:52.297Z,11.00
2023-11-27T23:21:18.775Z,11.60
2023-11-27T23:23:45.635Z,11.90
2023-11-27T23:26:12.247Z,11.98
2023-11-27T23:28:38.764Z,12.32
2023-11-27T23:31:05.432Z,12.57
2023-11-27T23:33:35.278Z,11.75
2023-11-27T23:36:01.930Z,12.55
2023-11-27T23:38:28.523Z,12.82
2023-11-27T23:40:55.374Z,12.82
2023-11-27T23:43:22.247Z,12.95
2023-11-27T23:45:48.861Z,12.65
2023-11-27T23:48:15.478Z,14.63
2023-11-27T23:50:43.964Z,12.85
2023-11-27T23:53:11.447Z,14.60
2023-11-27T23:55:38.892Z,13.80
2023-11-27T23:58:05.865Z,14.25
